Traditional Chinese Simplified Chinese
Climatological Information for Spring Commences recorded at Hong Kong Observatory
dotted-line

Climatological Information for Spring Commences recorded at
Hong Kong Observatory
(Period: 1947 - 2017)

Go To SEVERE COLDGo To SPRING SHOWERS
Day
(yyyy-mm-dd)
Air Temperature Daily
Relative
Humidity
(%)
Daily
Total
Rainfall
(mm)
Daily
Total
Cloud Amount
(%)
Maximum
(Degree C)
Mean
(Degree C)
Minimum
(Degree C)
1947-02-04 17.7 13.5 10.4 71 1.8 ###
1948-02-05 17.3 15.9 14.3 93 0.3 ###
1949-02-04 19.9 17.2 15.5 94 0.5 89
1950-02-04 15.2 12.0 9.5 57 - 74
1951-02-04 19.4 15.9 13.6 77 - 17
1952-02-05 15.0 14.1 13.2 79 0.2 96
1953-02-04 21.9 18.1 16.1 94 - 91
1954-02-04 17.4 14.9 13.2 80 0.1 59
1955-02-04 17.9 15.7 13.9 80 - 60
1956-02-05 18.6 16.9 15.9 86 - 85
1957-02-04 16.7 15.6 14.6 95 16.3 99
1958-02-04 18.3 15.7 14.3 88 3.7 76
1959-02-04 20.9 19.3 18.2 96 Trace 96
1960-02-05 19.5 14.9 11.3 56 - 4
1961-02-04 17.7 15.2 13.4 77 Trace 78
1962-02-04 17.3 14.6 12.6 70 - 13
1963-02-04 16.4 14.6 13.3 72 - 36
1964-02-05 16.6 14.7 13.2 85 - 83
1965-02-04 17.3 16.1 14.8 77 0.1 91
1966-02-04 26.7 21.0 17.6 88 Trace 89
1967-02-04 19.5 14.4 11.6 63 - 37
1968-02-05 11.1 10.1 8.9 87 0.9 100
1969-02-04 10.7 7.8 5.1 64 Trace 27
1970-02-04 20.9 17.9 15.2 67 - 34
1971-02-04 15.8 13.0 11.4 43 Trace 84
1972-02-05 16.5 15.0 13.9 92 0.4 100
1973-02-04 24.4 20.2 17.7 82 - 42
1974-02-04 16.2 14.7 14.0 85 Trace 94
1975-02-04 24.9 22.6 21.2 88 - 75
1976-02-05 20.3 16.2 13.0 50 - 5
1977-02-04 14.0 10.2 7.3 68 - 68
1978-02-04 20.2 17.1 15.1 77 - 86
1979-02-04 16.2 15.0 12.9 88 0.5 100
1980-02-05 9.0 7.8 6.5 74 Trace 100
1981-02-04 16.6 14.8 12.7 74 Trace 94
1982-02-04 23.7 20.0 17.5 83 - 43
1983-02-04 14.7 14.0 13.2 68 Trace 93
1984-02-04 16.1 13.4 11.5 79 Trace 84
1985-02-04 19.2 17.5 16.4 77 Trace 93
1986-02-04 14.8 13.9 12.7 81 Trace 100
1987-02-04 16.9 14.5 12.1 50 - 2
1988-02-04 17.5 16.4 15.3 80 Trace 88
1989-02-04 16.1 13.5 11.7 71 - 85
1990-02-04 13.9 12.7 11.5 73 - 97
1991-02-04 20.2 17.2 15.4 75 - 6
1992-02-04 22.8 19.4 17.8 90 Trace 57
1993-02-04 22.0 17.9 14.9 71 - 6
1994-02-04 19.6 17.9 16.0 79 Trace 94
1995-02-04 16.1 13.4 10.9 46 - 43
1996-02-04 19.9 16.6 13.5 64 - 32
1997-02-04 17.8 15.8 14.1 84 - 95
1998-02-04 19.1 13.4 10.3 84 2.7 100
1999-02-04 17.1 14.9 12.2 41 - 1
2000-02-04 18.3 16.2 15.0 84 Trace 86
2001-02-04 16.1 15.4 14.7 91 Trace 100
2002-02-04 17.6 16.4 15.2 74 - 88
2003-02-04 17.7 14.8 13.0 65 - 53
2004-02-04 11.2 9.6 8.6 90 15.0 91
2005-02-04 18.9 16.6 14.3 93 Trace 97
2006-02-04 16.6 15.7 14.7 82 Trace 89
2007-02-04 20.0 16.6 14.0 64 - 34
2008-02-04 13.4 12.1 10.5 79 Trace 88
2009-02-04 20.9 18.2 16.8 80 - 47
2010-02-04 18.1 17.2 16.3 91 0.4 89
2011-02-04 20.9 16.3 13.5 75 - 4
2012-02-04 17.4 15.3 14.0 83 Trace 83
2013-02-04 23.3 21.2 19.1 85 Trace 88
2014-02-04 19.4 18.2 16.6 82 Trace 73
2015-02-04 17.9 16.2 14.2 80 - 80
2016-02-04 18.8 15.2 13.3 76 - 45
2017-02-03 19.6 17.1 15.4 76 - 87
Maximum
26.7 22.6 21.2 96 16.3 100
Minimum
9.0 7.8 5.1 41 - 1
Normals
(1961-1990)
17.4 15.0 13.1 74 0.1 71
Normals
(1971-2000)
18.0 15.5 13.6 73 0.1 68
Normals
(1981-2010)
17.8 15.5 13.8 75 0.6 69
### means data not available
Column's Maximum in light red background colour
Column's Minimum in light blue background colour